createdAt,value
2023-02-27T00:00:42.402Z,103230.44
2023-02-27T00:03:09.033Z,103225.38
2023-02-27T00:05:35.799Z,103226.19
2023-02-27T00:08:02.342Z,103226.34
2023-02-27T00:10:29.106Z,103234.56
2023-02-27T00:12:56.087Z,103231.94
2023-02-27T00:15:23.380Z,103236.66
2023-02-27T00:17:50.060Z,103241.25
2023-02-27T00:20:18.734Z,103232.56
2023-02-27T00:22:45.899Z,103230.91
2023-02-27T00:25:13.647Z,103231.06
2023-02-27T00:27:40.881Z,103229.44
2023-02-27T00:30:10.006Z,103227.00
2023-02-27T00:32:36.912Z,103219.47
2023-02-27T00:35:05.246Z,103219.63
2023-02-27T00:37:32.185Z,103221.44
2023-02-27T00:39:58.923Z,103218.97
2023-02-27T00:42:25.684Z,103223.69
2023-02-27T00:44:52.237Z,103220.41
2023-02-27T00:47:18.931Z,103224.03
2023-02-27T00:49:45.720Z,103217.31
2023-02-27T00:52:12.590Z,103214.84
2023-02-27T00:54:39.470Z,103221.91
2023-02-27T00:57:06.036Z,103210.78
2023-02-27T00:59:32.607Z,103213.69
2023-02-27T01:01:59.092Z,103209.59
2023-02-27T01:04:25.732Z,103212.53
2023-02-27T01:06:52.337Z,103205.97
2023-02-27T01:09:18.957Z,103214.16
2023-02-27T01:11:45.622Z,103206.47
2023-02-27T01:14:12.597Z,103213.00
2023-02-27T01:16:39.271Z,103216.75
2023-02-27T01:19:05.928Z,103215.28
2023-02-27T01:21:32.492Z,103211.00
2023-02-27T01:23:59.002Z,103217.25
2023-02-27T01:26:25.860Z,103221.00
2023-02-27T01:28:52.415Z,103225.56
2023-02-27T01:31:19.180Z,103229.16
2023-02-27T01:33:45.839Z,103217.88
2023-02-27T01:36:12.471Z,103214.59
2023-02-27T01:38:39.056Z,103219.16
2023-02-27T01:41:07.403Z,103209.84
2023-02-27T01:43:34.158Z,103210.94
2023-02-27T01:46:01.333Z,103211.94
2023-02-27T01:48:38.587Z,103204.25
2023-02-27T01:51:14.342Z,103208.97
2023-02-27T01:53:44.330Z,103210.25
2023-02-27T01:56:15.483Z,103203.53
2023-02-27T01:58:43.267Z,103205.34
2023-02-27T02:01:09.862Z,103210.91
2023-02-27T02:03:47.895Z,103210.56
2023-02-27T02:06:14.566Z,103201.06
2023-02-27T02:08:47.856Z,103211.03
2023-02-27T02:11:18.036Z,103208.22
2023-02-27T02:13:45.201Z,103213.88
2023-02-27T02:16:42.733Z,103212.75
2023-02-27T02:19:15.190Z,103208.78
2023-02-27T02:22:06.662Z,103208.28
2023-02-27T02:24:58.327Z,103209.41
2023-02-27T02:28:06.755Z,103215.94
2023-02-27T02:31:05.256Z,103217.88
2023-02-27T02:33:59.683Z,103211.97
2023-02-27T02:36:29.007Z,103216.53
2023-02-27T02:39:26.272Z,103210.50
2023-02-27T02:41:55.500Z,103223.72
2023-02-27T02:44:39.798Z,103223.03
2023-02-27T02:47:40.910Z,103220.72
2023-02-27T02:50:18.754Z,103231.34
2023-02-27T02:53:00.446Z,103229.56
2023-02-27T02:55:35.658Z,103227.75
2023-02-27T02:58:12.314Z,103225.28
2023-02-27T03:00:55.519Z,103222.66
2023-02-27T03:03:31.351Z,103223.50
2023-02-27T03:06:07.033Z,103230.50
2023-02-27T03:08:39.243Z,103221.84
2023-02-27T03:11:06.429Z,103220.91
2023-02-27T03:13:57.565Z,103214.69
2023-02-27T03:16:32.269Z,103222.66
2023-02-27T03:19:11.460Z,103227.75
2023-02-27T03:21:56.593Z,103221.56
2023-02-27T03:24:31.453Z,103222.22
2023-02-27T03:27:02.862Z,103220.56
2023-02-27T03:29:38.898Z,103219.44
2023-02-27T03:32:13.515Z,103222.22
2023-02-27T03:34:42.491Z,103214.53
2023-02-27T03:37:36.046Z,103218.28
2023-02-27T03:40:14.726Z,103210.44
2023-02-27T03:43:01.027Z,103210.44
2023-02-27T03:46:03.183Z,103213.06
2023-02-27T03:48:30.663Z,103210.44
2023-02-27T03:50:58.344Z,103206.16
2023-02-27T03:53:31.458Z,103214.16
2023-02-27T03:55:59.866Z,103211.41
2023-02-27T03:58:26.542Z,103202.59
2023-02-27T04:00:53.451Z,103209.59
2023-02-27T04:03:21.263Z,103218.09
2023-02-27T04:05:47.975Z,103221.56
2023-02-27T04:08:49.720Z,103225.00
2023-02-27T04:11:35.218Z,103233.78
2023-02-27T04:14:23.545Z,103232.44
2023-02-27T04:17:09.285Z,103234.56
2023-02-27T04:20:10.531Z,103240.75
2023-02-27T04:22:39.128Z,103237.34
2023-02-27T04:25:13.465Z,103244.38
2023-02-27T04:27:50.181Z,103248.78
2023-02-27T04:30:28.189Z,103250.72
2023-02-27T04:33:03.734Z,103254.44
2023-02-27T04:35:43.736Z,103249.38
2023-02-27T04:38:33.089Z,103249.53
2023-02-27T04:41:23.195Z,103253.25
2023-02-27T04:43:51.142Z,103262.19
2023-02-27T04:46:22.235Z,103264.16
2023-02-27T04:48:57.846Z,103260.84
2023-02-27T04:51:35.355Z,103268.88
2023-02-27T04:54:12.691Z,103268.19
2023-02-27T04:56:46.553Z,103267.53
2023-02-27T04:59:21.511Z,103271.41
2023-02-27T05:01:57.745Z,103267.44
2023-02-27T05:04:27.283Z,103267.75
2023-02-27T05:06:55.876Z,103264.44
2023-02-27T05:09:38.302Z,103274.09
2023-02-27T05:12:17.149Z,103270.66
2023-02-27T05:14:55.621Z,103268.19
2023-02-27T05:17:29.758Z,103270.13
2023-02-27T05:19:56.419Z,103268.66
2023-02-27T05:22:42.077Z,103276.34
2023-02-27T05:25:20.662Z,103280.56
2023-02-27T05:28:02.075Z,103281.56
2023-02-27T05:30:43.764Z,103280.56
2023-02-27T05:33:21.098Z,103278.94
2023-02-27T05:36:03.588Z,103282.22
2023-02-27T05:38:38.653Z,103281.56
2023-02-27T05:41:17.476Z,103286.13
2023-02-27T05:43:51.051Z,103285.44
2023-02-27T05:46:24.657Z,103287.19
2023-02-27T05:48:57.159Z,103284.59
2023-02-27T05:51:30.521Z,103289.97
2023-02-27T05:54:06.686Z,103289.13
2023-02-27T05:56:36.884Z,103288.19
2023-02-27T05:59:10.613Z,103290.13
2023-02-27T06:01:37.250Z,103292.72
2023-02-27T06:04:03.829Z,103292.72
2023-02-27T06:06:31.239Z,103297.81
2023-02-27T06:08:58.004Z,103294.69
2023-02-27T06:11:24.592Z,103303.31
2023-02-27T06:13:51.150Z,103301.03
2023-02-27T06:16:17.803Z,103319.28
2023-02-27T06:18:44.517Z,103316.00
2023-02-27T06:21:13.300Z,103322.84
2023-02-27T06:23:40.135Z,103329.88
2023-02-27T06:26:06.774Z,103335.91
2023-02-27T06:28:33.434Z,103332.34
2023-02-27T06:31:00.284Z,103337.72
2023-02-27T06:33:27.021Z,103342.94
2023-02-27T06:35:53.702Z,103347.34
2023-02-27T06:38:20.447Z,103348.28
2023-02-27T06:40:47.014Z,103347.47
2023-02-27T06:43:14.922Z,103346.50
2023-02-27T06:45:41.825Z,103339.50
2023-02-27T06:48:08.533Z,103349.94
2023-02-27T06:50:35.520Z,103348.28
2023-02-27T06:53:02.207Z,103348.16
2023-02-27T06:55:28.937Z,103347.19
2023-02-27T06:57:55.479Z,103353.25
2023-02-27T07:00:22.536Z,103354.72
2023-02-27T07:02:49.266Z,103357.22
2023-02-27T07:05:16.470Z,103359.66
2023-02-27T07:07:42.987Z,103362.94
2023-02-27T07:10:13.111Z,103358.38
2023-02-27T07:12:40.634Z,103354.81
2023-02-27T07:15:08.608Z,103359.75
2023-02-27T07:17:35.124Z,103358.78
2023-02-27T07:20:01.639Z,103356.84
2023-02-27T07:22:28.198Z,103361.94
2023-02-27T07:24:54.789Z,103362.75
2023-02-27T07:27:21.462Z,103368.78
2023-02-27T07:29:48.097Z,103367.00
2023-02-27T07:32:14.889Z,103367.84
2023-02-27T07:34:41.532Z,103360.50
2023-02-27T07:37:08.279Z,103358.28
2023-02-27T07:39:34.995Z,103363.59
2023-02-27T07:42:01.769Z,103359.28
2023-02-27T07:44:28.286Z,103365.09
2023-02-27T07:46:54.942Z,103361.44
2023-02-27T07:49:21.538Z,103364.81
2023-02-27T07:51:48.111Z,103360.13
2023-02-27T07:54:14.685Z,103361.69
2023-02-27T07:56:41.193Z,103368.31
2023-02-27T07:59:08.087Z,103367.41
2023-02-27T08:01:34.717Z,103373.19
2023-02-27T08:04:01.480Z,103371.47
2023-02-27T08:06:28.456Z,103374.81
2023-02-27T08:08:55.140Z,103376.63
2023-02-27T08:11:21.601Z,103381.75
2023-02-27T08:14:03.830Z,103379.03
2023-02-27T08:16:32.205Z,103385.94
2023-02-27T08:19:00.235Z,103379.06
2023-02-27T08:21:27.879Z,103387.63
2023-02-27T08:23:55.110Z,103386.03
2023-02-27T08:26:21.846Z,103386.06
2023-02-27T08:28:48.526Z,103390.31
2023-02-27T08:31:15.448Z,103391.34
2023-02-27T08:33:42.170Z,103393.97
2023-02-27T08:36:10.133Z,103389.06
2023-02-27T08:38:36.856Z,103391.84
2023-02-27T08:41:04.442Z,103390.06
2023-02-27T08:43:31.093Z,103400.88
2023-02-27T08:45:57.789Z,103408.13
2023-02-27T08:48:25.015Z,103399.75
2023-02-27T08:50:52.216Z,103404.34
2023-02-27T08:53:19.331Z,103409.09
2023-02-27T08:55:51.096Z,103404.19
2023-02-27T08:58:18.695Z,103421.91
2023-02-27T09:00:46.062Z,103405.66
2023-02-27T09:03:12.906Z,103421.56
2023-02-27T09:05:40.785Z,103416.81
2023-02-27T09:08:07.685Z,103414.34
2023-02-27T09:10:34.951Z,103415.28
2023-02-27T09:13:02.432Z,103416.94
2023-02-27T09:15:30.486Z,103416.44
2023-02-27T09:18:02.659Z,103419.03
2023-02-27T09:20:31.810Z,103425.25
2023-02-27T09:22:59.687Z,103419.16
2023-02-27T09:25:27.070Z,103414.03
2023-02-27T09:27:53.794Z,103415.84
2023-02-27T09:30:21.173Z,103413.84
2023-02-27T09:32:48.254Z,103420.22
2023-02-27T09:35:20.335Z,103418.38
2023-02-27T09:37:48.480Z,103416.69
2023-02-27T09:40:29.305Z,103412.84
2023-02-27T09:43:02.937Z,103418.72
2023-02-27T09:45:31.978Z,103413.75
2023-02-27T09:48:10.636Z,103413.72
2023-02-27T09:50:47.662Z,103413.66
2023-02-27T09:53:31.370Z,103415.88
2023-02-27T09:56:06.986Z,103413.34
2023-02-27T09:59:02.458Z,103420.53
2023-02-27T10:01:40.774Z,103421.13
2023-02-27T10:04:45.580Z,103419.25
2023-02-27T10:07:30.787Z,103416.19
2023-02-27T10:10:05.183Z,103415.50
2023-02-27T10:12:45.349Z,103414.97
2023-02-27T10:15:15.368Z,103419.97
2023-02-27T10:17:51.252Z,103417.44
2023-02-27T10:20:28.386Z,103412.25
2023-02-27T10:22:59.984Z,103412.44
2023-02-27T10:25:31.567Z,103413.31
2023-02-27T10:28:11.067Z,103409.50
2023-02-27T10:30:37.989Z,103406.22
2023-02-27T10:33:29.261Z,103413.59
2023-02-27T10:35:56.080Z,103413.22
2023-02-27T10:38:35.244Z,103410.09
2023-02-27T10:41:03.240Z,103405.34
2023-02-27T10:43:30.316Z,103404.59
2023-02-27T10:46:01.042Z,103413.16
2023-02-27T10:48:27.836Z,103393.56
2023-02-27T10:51:19.796Z,103408.91
2023-02-27T10:53:46.439Z,103397.59
2023-02-27T10:56:24.330Z,103396.31
2023-02-27T10:59:04.985Z,103386.06
2023-02-27T11:01:52.428Z,103392.22
2023-02-27T11:04:40.486Z,103390.44
2023-02-27T11:07:10.545Z,103390.31
2023-02-27T11:09:37.978Z,103379.00
2023-02-27T11:12:22.757Z,103381.09
2023-02-27T11:14:54.303Z,103373.75
2023-02-27T11:17:28.834Z,103384.56
2023-02-27T11:19:56.813Z,103376.84
2023-02-27T11:22:26.481Z,103371.72
2023-02-27T11:25:16.384Z,103363.63
2023-02-27T11:27:43.213Z,103348.41
2023-02-27T11:30:23.904Z,103343.75
2023-02-27T11:32:52.027Z,103351.50
2023-02-27T11:35:26.846Z,103342.97
2023-02-27T11:37:56.799Z,103337.50
2023-02-27T11:40:30.434Z,103337.34
2023-02-27T11:43:03.884Z,103333.31
2023-02-27T11:46:10.753Z,103334.91
2023-02-27T11:48:35.687Z,103325.75
2023-02-27T11:51:11.189Z,103332.69
2023-02-27T11:54:18.519Z,103337.13
2023-02-27T11:56:48.328Z,103336.13
2023-02-27T11:59:42.163Z,103331.22
2023-02-27T12:02:32.863Z,103329.00
2023-02-27T12:05:17.814Z,103317.19
2023-02-27T12:07:52.752Z,103315.97
2023-02-27T12:10:25.419Z,103315.59
2023-02-27T12:12:57.537Z,103319.69
2023-02-27T12:15:44.204Z,103320.72
2023-02-27T12:18:21.317Z,103319.50
2023-02-27T12:20:57.660Z,103320.75
2023-02-27T12:23:33.305Z,103312.19
2023-02-27T12:26:07.251Z,103314.88
2023-02-27T12:28:57.904Z,103312.88
2023-02-27T12:31:41.149Z,103311.47
2023-02-27T12:34:29.476Z,103297.22
2023-02-27T12:37:12.300Z,103303.34
2023-02-27T12:39:42.141Z,103302.16
2023-02-27T12:42:11.780Z,103305.81
2023-02-27T12:45:02.381Z,103293.00
2023-02-27T12:47:58.601Z,103305.00
2023-02-27T12:50:29.809Z,103300.53
2023-02-27T12:53:23.051Z,103302.16
2023-02-27T12:55:57.703Z,103290.94
2023-02-27T12:58:56.090Z,103291.56
2023-02-27T13:01:48.192Z,103304.56
2023-02-27T13:04:41.857Z,103300.31
2023-02-27T13:07:18.207Z,103298.47
2023-02-27T13:09:50.345Z,103289.13
2023-02-27T13:12:36.476Z,103294.81
2023-02-27T13:15:16.943Z,103294.59
2023-02-27T13:17:49.820Z,103285.84
2023-02-27T13:20:22.489Z,103286.25
2023-02-27T13:22:55.869Z,103295.41
2023-02-27T13:25:23.900Z,103289.69
2023-02-27T13:28:01.370Z,103290.50
2023-02-27T13:30:41.810Z,103284.59
2023-02-27T13:33:20.643Z,103282.16
2023-02-27T13:36:24.216Z,103288.66
2023-02-27T13:38:54.435Z,103281.72
2023-02-27T13:41:20.966Z,103275.66
2023-02-27T13:43:52.499Z,103279.53
2023-02-27T13:46:37.313Z,103275.84
2023-02-27T13:49:20.104Z,103283.41
2023-02-27T13:51:58.166Z,103271.59
2023-02-27T13:54:33.601Z,103264.25
2023-02-27T13:57:09.150Z,103266.28
2023-02-27T13:59:39.635Z,103262.75
2023-02-27T14:02:12.348Z,103269.47
2023-02-27T14:04:50.568Z,103276.81
2023-02-27T14:07:21.562Z,103268.50
2023-02-27T14:09:53.602Z,103267.06
2023-02-27T14:12:45.454Z,103267.06
2023-02-27T14:15:18.529Z,103262.81
2023-02-27T14:17:47.684Z,103276.66
2023-02-27T14:20:17.368Z,103265.22
2023-02-27T14:23:15.871Z,103263.63
2023-02-27T14:25:50.636Z,103268.09
2023-02-27T14:28:26.008Z,103257.66
2023-02-27T14:30:59.151Z,103265.63
2023-02-27T14:33:40.638Z,103270.69
2023-02-27T14:36:19.970Z,103270.31
2023-02-27T14:38:47.018Z,103268.44
2023-02-27T14:41:35.234Z,103257.00
2023-02-27T14:44:02.488Z,103265.16
2023-02-27T14:46:36.781Z,103269.66
2023-02-27T14:49:07.713Z,103270.09
2023-02-27T14:51:37.468Z,103268.47
2023-02-27T14:54:12.869Z,103269.69
2023-02-27T14:56:40.165Z,103269.91
2023-02-27T14:59:26.721Z,103266.69
2023-02-27T15:01:56.533Z,103272.81
2023-02-27T15:04:27.531Z,103264.06
2023-02-27T15:06:56.460Z,103260.78
2023-02-27T15:09:34.795Z,103261.59
2023-02-27T15:12:04.440Z,103259.78
2023-02-27T15:14:36.064Z,103268.50
2023-02-27T15:17:04.442Z,103263.00
2023-02-27T15:19:31.524Z,103262.97
2023-02-27T15:22:03.464Z,103267.66
2023-02-27T15:24:49.573Z,103268.69
2023-02-27T15:27:20.256Z,103267.88
2023-02-27T15:29:52.775Z,103277.28
2023-02-27T15:32:32.948Z,103273.41
2023-02-27T15:35:05.321Z,103282.97
2023-02-27T15:37:34.022Z,103272.78
2023-02-27T15:40:05.240Z,103272.19
2023-02-27T15:42:35.379Z,103272.00
2023-02-27T15:45:04.186Z,103277.50
2023-02-27T15:47:32.834Z,103275.88
2023-02-27T15:50:09.197Z,103285.06
2023-02-27T15:52:44.093Z,103283.00
2023-02-27T15:55:16.369Z,103285.66
2023-02-27T15:57:56.587Z,103286.88
2023-02-27T16:00:30.198Z,103283.81
2023-02-27T16:02:57.851Z,103272.59
2023-02-27T16:05:27.350Z,103285.25
2023-02-27T16:07:55.622Z,103273.84
2023-02-27T16:10:36.834Z,103281.16
2023-02-27T16:13:36.968Z,103278.72
2023-02-27T16:16:23.042Z,103277.72
2023-02-27T16:18:55.792Z,103272.22
2023-02-27T16:21:27.913Z,103281.19
2023-02-27T16:23:55.131Z,103272.81
2023-02-27T16:26:24.694Z,103275.09
2023-02-27T16:28:51.711Z,103284.84
2023-02-27T16:31:26.107Z,103279.97
2023-02-27T16:33:55.559Z,103290.94
2023-02-27T16:36:25.068Z,103292.78
2023-02-27T16:38:52.220Z,103281.78
2023-02-27T16:41:20.917Z,103282.19
2023-02-27T16:43:48.725Z,103289.50
2023-02-27T16:46:20.634Z,103283.19
2023-02-27T16:48:51.597Z,103277.28
2023-02-27T16:51:23.903Z,103273.63
2023-02-27T16:53:52.019Z,103284.22
2023-02-27T16:56:23.705Z,103288.28
2023-02-27T16:58:55.908Z,103292.16
2023-02-27T17:01:22.572Z,103287.06
2023-02-27T17:03:49.334Z,103293.56
2023-02-27T17:06:15.864Z,103285.03
2023-02-27T17:08:44.088Z,103294.97
2023-02-27T17:11:11.047Z,103293.34
2023-02-27T17:13:37.808Z,103300.66
2023-02-27T17:16:05.827Z,103300.03
2023-02-27T17:18:33.670Z,103302.88
2023-02-27T17:21:02.923Z,103299.41
2023-02-27T17:23:29.953Z,103305.75
2023-02-27T17:25:57.179Z,103303.47
2023-02-27T17:28:24.310Z,103305.31
2023-02-27T17:30:51.130Z,103309.19
2023-02-27T17:33:17.859Z,103306.53
2023-02-27T17:35:44.400Z,103307.53
2023-02-27T17:38:11.048Z,103315.03
2023-02-27T17:40:39.366Z,103313.44
2023-02-27T17:43:06.228Z,103311.38
2023-02-27T17:45:33.028Z,103316.06
2023-02-27T17:47:59.707Z,103315.44
2023-02-27T17:50:26.498Z,103317.47
2023-02-27T17:52:53.087Z,103326.59
2023-02-27T17:55:19.813Z,103327.59
2023-02-27T17:57:46.416Z,103332.28
2023-02-27T18:00:15.559Z,103329.19
2023-02-27T18:02:45.105Z,103333.88
2023-02-27T18:05:12.113Z,103323.88
2023-02-27T18:07:39.064Z,103329.97
2023-02-27T18:10:09.092Z,103327.91
2023-02-27T18:12:36.649Z,103334.78
2023-02-27T18:15:04.132Z,103329.28
2023-02-27T18:17:31.111Z,103326.16
2023-02-27T18:19:58.178Z,103329.56
2023-02-27T18:22:25.216Z,103329.72
2023-02-27T18:24:55.724Z,103339.22
2023-02-27T18:27:22.489Z,103340.59
2023-02-27T18:29:52.218Z,103333.88
2023-02-27T18:32:19.302Z,103349.28
2023-02-27T18:34:45.886Z,103350.50
2023-02-27T18:37:12.440Z,103336.66
2023-02-27T18:39:39.061Z,103347.63
2023-02-27T18:42:06.838Z,103340.88
2023-02-27T18:44:38.569Z,103348.63
2023-02-27T18:49:59.547Z,103355.97
2023-02-27T18:52:26.364Z,103365.53
2023-02-27T18:54:53.022Z,103368.34
2023-02-27T18:57:19.703Z,103369.16
2023-02-27T18:59:47.470Z,103363.06
2023-02-27T19:02:15.920Z,103366.72
2023-02-27T19:04:42.571Z,103366.91
2023-02-27T19:07:09.184Z,103373.81
2023-02-27T19:09:35.757Z,103367.09
2023-02-27T19:12:02.510Z,103373.41
2023-02-27T19:14:29.346Z,103373.41
2023-02-27T19:16:56.938Z,103368.28
2023-02-27T19:19:23.521Z,103373.75
2023-02-27T19:21:50.030Z,103372.50
2023-02-27T19:24:16.839Z,103376.75
2023-02-27T19:26:43.484Z,103371.19
2023-02-27T19:29:10.109Z,103378.31
2023-02-27T19:31:36.877Z,103379.13
2023-02-27T19:34:03.450Z,103379.38
2023-02-27T19:36:31.221Z,103379.16
2023-02-27T19:38:58.485Z,103369.25
2023-02-27T19:41:26.056Z,103373.72
2023-02-27T19:43:53.595Z,103381.63
2023-02-27T19:46:26.404Z,103377.16
2023-02-27T19:48:54.381Z,103385.06
2023-02-27T19:51:21.423Z,103386.47
2023-02-27T19:53:51.233Z,103389.94
2023-02-27T19:56:20.481Z,103392.75
2023-02-27T19:58:48.180Z,103385.03
2023-02-27T20:01:28.202Z,103394.94
2023-02-27T20:03:59.139Z,103396.16
2023-02-27T20:06:28.020Z,103397.13
2023-02-27T20:08:55.713Z,103399.16
2023-02-27T20:11:22.441Z,103397.72
2023-02-27T20:13:50.523Z,103406.03
2023-02-27T20:16:20.741Z,103407.41
2023-02-27T20:18:48.792Z,103403.09
2023-02-27T20:21:18.606Z,103409.41
2023-02-27T20:23:46.526Z,103407.97
2023-02-27T20:26:17.929Z,103408.78
2023-02-27T20:28:45.598Z,103401.66
2023-02-27T20:31:13.451Z,103408.16
2023-02-27T20:33:41.464Z,103403.84
2023-02-27T20:36:10.214Z,103403.63
2023-02-27T20:38:40.355Z,103401.97
2023-02-27T20:41:08.903Z,103400.34
2023-02-27T20:43:38.081Z,103396.06
2023-02-27T20:46:09.040Z,103399.72
2023-02-27T20:48:35.798Z,103398.06
2023-02-27T20:51:09.517Z,103397.81
2023-02-27T20:53:38.461Z,103396.56
2023-02-27T20:56:06.469Z,103397.75
2023-02-27T20:58:33.417Z,103406.66
2023-02-27T21:01:04.356Z,103403.59
2023-02-27T21:03:38.522Z,103413.50
2023-02-27T21:06:06.911Z,103406.31
2023-02-27T21:08:39.377Z,103411.69
2023-02-27T21:11:10.589Z,103401.25
2023-02-27T21:13:37.783Z,103404.97
2023-02-27T21:16:06.097Z,103398.91
2023-02-27T21:18:34.611Z,103395.63
2023-02-27T21:21:11.503Z,103407.22
2023-02-27T21:23:41.193Z,103399.88
2023-02-27T21:26:09.666Z,103406.88
2023-02-27T21:28:47.659Z,103399.69
2023-02-27T21:31:16.210Z,103408.19
2023-02-27T21:33:43.612Z,103405.97
2023-02-27T21:36:10.754Z,103413.13
2023-02-27T21:38:38.129Z,103412.22
2023-02-27T21:41:11.432Z,103408.47
2023-02-27T21:43:40.506Z,103414.25
2023-02-27T21:46:09.177Z,103409.50
2023-02-27T21:48:36.617Z,103417.91
2023-02-27T21:51:04.296Z,103414.00
2023-02-27T21:53:31.683Z,103420.75
2023-02-27T21:56:06.508Z,103424.75
2023-02-27T21:58:33.896Z,103421.81
2023-02-27T22:01:00.981Z,103423.50
2023-02-27T22:03:34.346Z,103424.38
2023-02-27T22:06:02.290Z,103426.22
2023-02-27T22:08:29.160Z,103422.81
2023-02-27T22:10:58.988Z,103427.09
2023-02-27T22:13:27.247Z,103427.25
2023-02-27T22:15:54.243Z,103421.19
2023-02-27T22:18:21.169Z,103416.09
2023-02-27T22:20:48.030Z,103422.69
2023-02-27T22:23:15.027Z,103418.59
2023-02-27T22:25:41.623Z,103416.13
2023-02-27T22:28:08.376Z,103413.84
2023-02-27T22:30:35.147Z,103414.38
2023-02-27T22:33:01.738Z,103416.50
2023-02-27T22:35:28.483Z,103408.34
2023-02-27T22:37:55.319Z,103420.97
2023-02-27T22:40:21.854Z,103418.22
2023-02-27T22:42:48.344Z,103425.75
2023-02-27T22:45:15.514Z,103432.00
2023-02-27T22:47:42.267Z,103435.59
2023-02-27T22:50:09.544Z,103432.16
2023-02-27T22:52:37.076Z,103427.25
2023-02-27T22:55:04.604Z,103433.84
2023-02-27T22:57:31.131Z,103436.78
2023-02-27T22:59:57.658Z,103434.00
2023-02-27T23:02:24.231Z,103424.47
2023-02-27T23:04:50.986Z,103423.66
2023-02-27T23:07:17.839Z,103431.03
2023-02-27T23:09:44.633Z,103432.53
2023-02-27T23:12:11.431Z,103432.84
2023-02-27T23:14:37.973Z,103434.19
2023-02-27T23:17:04.619Z,103434.69
2023-02-27T23:19:32.378Z,103433.88
2023-02-27T23:21:59.249Z,103440.75
2023-02-27T23:24:25.933Z,103443.22
2023-02-27T23:26:53.273Z,103440.59
2023-02-27T23:29:20.139Z,103448.47
2023-02-27T23:31:46.954Z,103441.56
2023-02-27T23:34:14.045Z,103437.31
2023-02-27T23:36:40.921Z,103444.38
2023-02-27T23:39:09.008Z,103444.53
2023-02-27T23:41:35.999Z,103449.13
2023-02-27T23:44:02.981Z,103450.09
2023-02-27T23:46:30.692Z,103455.19
2023-02-27T23:48:58.476Z,103452.09
2023-02-27T23:51:25.489Z,103448.16
2023-02-27T23:53:52.653Z,103445.03
2023-02-27T23:56:25.902Z,103447.16
2023-02-27T23:58:54.968Z,103446.31
